• Join FlightAware (Why Join?)
  • Login
  • US Flag 
09:00AM EDT


 

Airport Tracker/Info


-or-


 

Live Flight TrackerFlight Track Log ✈ ASQ5041 ✈ 20-May-2012 ✈ KTYS - KATL

Flight Track Log - Related Links

Times and Time Zones

All times are in EDT time to prevent confusion due to time zone crossing. See the ASQ5041 flight status page for this flight to view local times or setup timezone preferences in your user account.

Time Position Orientation Groundspeed Altitude Reporting Facility
EDT Latitude Longitude Course Direction KTS MPH feet Rate Location/Type
06:11PM 35.8161 -83.8800 138° Southeast 191 220 4,400  Level Atlanta Center
06:14PM 35.6594 -83.7064 161° South 268 308 11,200 2,040 Climbing Atlanta Center
06:15PM 35.5697 -83.6686 161° South 305 351 12,700 1,560 Climbing Atlanta Center
06:16PM 35.4736 -83.6281 162° South 345 397 14,400 1,380 Climbing Atlanta Center
06:17PM 35.3942 -83.5956 161° South 360 414 15,600 1,680 Climbing Atlanta Center
06:18PM 35.2750 -83.5453 165° South 379 436 17,800 1,200 Climbing Atlanta Center
06:19PM 35.1747 -83.5128 193° South 379 436 18,000 60 Climbing Atlanta Center
06:20PM 35.0808 -83.5389 195° South 351 404 18,000  Level Atlanta Center
06:21PM 34.9892 -83.5697 191° South 351 404 18,000  Level Atlanta Center
06:22PM 34.8933 -83.5931 196° South 351 404 18,000  Level Atlanta Center
06:23PM 34.7975 -83.6264 194° South 359 413 18,000  Level Atlanta Center
06:24PM 34.6911 -83.6597 194° South 382 440 18,000  Level Atlanta Center
06:25PM 34.5828 -83.6931 195° South 396 456 18,000  Level Atlanta Center
06:26PM 34.4783 -83.7264 195° South 396 456 18,000  Level Atlanta Center
06:27PM 34.3783 -83.7594 194° South 382 440 18,000  Level Atlanta Center
06:28PM 34.2867 -83.7872 194° South 376 433 18,000 -900 Level Atlanta Center
06:29PM 34.1844 -83.8178 196° South 376 433 16,300 -1,920 Descending Atlanta Center
06:30PM 34.0883 -83.8506 217° Southwest 370 426 14,300 -1,380 Descending Atlanta Center
06:31PM 34.0167 -83.9167 220° Southwest 341 392 14,000 -180 Descending Atlanta TRACON
06:32PM 33.9500 -83.9833 226° Southwest 343 395 14,000 -240 Level Atlanta TRACON
06:33PM 33.8833 -84.0667 212° Southwest 312 359 13,600 -1,020 Descending Atlanta TRACON
06:34PM 33.8167 -84.1167 212° Southwest 304 350 12,000 -900 Descending Atlanta TRACON
06:35PM 33.7500 -84.1667 212° Southwest 308 354 12,000  Level Atlanta TRACON
06:36PM 33.6833 -84.2167 212° Southwest 289 333 12,000  Level Atlanta TRACON
06:37PM 33.6167 -84.2667 203° Southwest 274 315 12,000 -240 Level Atlanta TRACON
06:38PM 33.5500 -84.3000 270° West 279 321 11,600 -1,200 Descending Atlanta TRACON
06:39PM 33.5500 -84.3833 270° West 261 300 9,700 -1,980 Descending Atlanta TRACON
06:40PM 33.5500 -84.4667 270° West 253 291 7,700 -1,860 Descending Atlanta TRACON
06:41PM 33.5500 -84.5500 270° West 231 266 6,000 -1,500 Descending Atlanta TRACON
06:42PM 33.5500 -84.6333 320° Northwest 228 262 4,700 -1,260 Descending Atlanta TRACON
06:43PM 33.5833 -84.6667 51° Northeast 195 224 3,700 -660 Descending Atlanta TRACON
06:44PM 33.6167 -84.6167 90° East 187 215 3,500 -480 Descending Atlanta TRACON
06:45PM 33.6167 -84.5500 90° East 180 207 2,800 -780 Descending Atlanta TRACON
06:46PM 33.6167 -84.5000 76° East 157 181 1,900 -900 Descending Atlanta TRACON
06:54PM 33.6333 -84.4167 76° East  Level FlightAware Approximate